Time;durP1;ratioP1;P1;durP2;ratioP2;P2;SDS_P1;SDS_P2;PMS_P1;PMS_P2;Temp;Humidity;BMP_temperature;BMP_pressure;BME280_temperature;BME280_humidity;BME280_pressure;Samples;Min_cycle;Max_cycle;Signal;HPM_P1;HPM_P2
2023/04/24 00:00:03;;;;;;;0.50;0.50;;;;;;;9.65;87.23;95881.94;29395;197;63005;-56
2023/04/24 00:00:34;;;;;;;0.50;0.50;;;;;;;9.65;86.81;95881.16;29395;266;63009;-56
2023/04/24 00:01:07;;;;;;;0.50;0.50;;;;;;;9.63;87.23;95876.03;29395;206;63017;-57
2023/04/24 00:01:39;;;;;;;0.50;0.50;;;;;;;9.64;86.81;95884.97;29395;262;63009;-60
2023/04/24 00:02:10;;;;;;;0.50;0.50;;;;;;;9.71;86.63;95877.16;29395;271;63005;-56
2023/04/24 00:02:46;;;;;;;0.50;0.50;;;;;;;9.72;86.18;95878.75;29395;216;63009;-56
2023/04/24 00:03:20;;;;;;;0.50;0.50;;;;;;;9.71;86.53;95879.88;29395;218;63004;-56
2023/04/24 00:03:59;;;;;;;0.40;0.40;;;;;;;9.70;87.02;95881.00;29394;214;64013;-56
2023/04/24 00:04:31;;;;;;;0.50;0.50;;;;;;;9.70;87.26;95881.78;29395;247;63004;-57
2023/04/24 00:05:03;;;;;;;0.50;0.50;;;;;;;9.73;86.55;95883.06;29395;208;63009;-56
2023/04/24 00:05:34;;;;;;;0.50;0.50;;;;;;;9.72;86.23;95884.97;29395;228;63004;-56
2023/04/24 00:06:07;;;;;;;0.50;0.50;;;;;;;9.70;86.41;95881.78;29395;211;63008;-57
2023/04/24 00:06:42;;;;;;;0.50;0.50;;;;;;;9.71;86.46;95882.59;29395;224;63005;-56
2023/04/24 00:07:14;;;;;;;0.50;0.50;;;;;;;9.67;86.38;95887.06;29395;231;63009;-58
2023/04/24 00:07:45;;;;;;;0.50;0.50;;;;;;;9.72;86.46;95884.19;29395;210;63005;-57
2023/04/24 00:08:17;;;;;;;0.50;0.50;;;;;;;9.76;85.47;95885.16;29395;197;63017;-56
2023/04/24 00:08:48;;;;;;;0.50;0.50;;;;;;;9.75;85.86;95883.56;29395;250;63005;-56
2023/04/24 00:09:20;;;;;;;0.50;0.50;;;;;;;9.75;85.94;95888.97;29394;216;64013;-56
2023/04/24 00:09:51;;;;;;;0.50;0.50;;;;;;;9.78;86.11;95885.66;29395;241;63005;-56
2023/04/24 00:10:23;;;;;;;0.50;0.50;;;;;;;9.78;85.83;95896.50;29395;196;63009;-58
2023/04/24 00:10:54;;;;;;;0.50;0.50;;;;;;;9.75;86.00;95892.50;29395;261;63004;-57
2023/04/24 00:11:26;;;;;;;0.50;0.50;;;;;;;9.77;85.67;95897.59;29395;226;63009;-57
2023/04/24 00:11:57;;;;;;;0.43;0.43;;;;;;;9.87;85.17;95891.91;29395;206;63004;-56
2023/04/24 00:12:28;;;;;;;0.50;0.50;;;;;;;9.83;85.23;95890.94;29394;215;64013;-59
2023/04/24 00:12:59;;;;;;;0.50;0.50;;;;;;;9.80;85.06;95890.75;29395;240;63004;-57
2023/04/24 00:13:34;;;;;;;0.50;0.50;;;;;;;9.84;85.09;95897.97;29395;209;63008;-58
2023/04/24 00:14:05;;;;;;;0.50;0.50;;;;;;;9.89;83.68;95900.53;29395;203;63005;-57
2023/04/24 00:14:37;;;;;;;0.50;0.50;;;;;;;9.92;83.83;95899.91;29395;268;63020;-57
2023/04/24 00:15:09;;;;;;;0.50;0.50;;;;;;;9.89;84.70;95899.72;29395;216;63005;-57
2023/04/24 00:15:41;;;;;;;0.50;0.50;;;;;;;9.84;84.66;95892.53;29395;220;63009;-57
2023/04/24 00:16:12;;;;;;;0.50;0.50;;;;;;;9.78;85.35;95890.28;29395;258;63005;-56
2023/04/24 00:16:43;;;;;;;0.50;0.50;;;;;;;9.71;85.66;95891.50;29395;207;63009;-56
2023/04/24 00:17:14;;;;;;;0.50;0.50;;;;;;;9.66;85.94;95891.66;29395;222;63015;-57
2023/04/24 00:17:46;;;;;;;0.50;0.50;;;;;;;9.64;85.91;95887.66;29394;209;64013;-56
2023/04/24 00:18:17;;;;;;;0.50;0.50;;;;;;;9.62;86.10;95887.97;29395;203;63004;-58
2023/04/24 00:18:49;;;;;;;0.50;0.50;;;;;;;9.66;86.30;95885.44;29395;209;63009;-56
2023/04/24 00:19:21;;;;;;;0.50;0.50;;;;;;;9.65;86.15;95890.06;29395;258;63004;-59
2023/04/24 00:19:58;;;;;;;0.50;0.50;;;;;;;9.68;85.93;95888.66;29394;219;64013;-57
2023/04/24 00:20:32;;;;;;;0.50;0.50;;;;;;;9.68;85.28;95886.75;29395;213;63015;-57
2023/04/24 00:21:04;;;;;;;0.50;0.50;;;;;;;9.66;85.66;95886.25;29395;265;63008;-56
2023/04/24 00:21:35;;;;;;;0.50;0.50;;;;;;;9.64;85.75;95888.47;29395;217;63005;-56
2023/04/24 00:22:07;;;;;;;0.50;0.50;;;;;;;9.62;85.57;95896.09;29395;235;63016;-57
2023/04/24 00:22:38;;;;;;;0.50;0.50;;;;;;;9.64;86.62;95888.47;29395;209;63005;-57
2023/04/24 00:23:10;;;;;;;0.50;0.50;;;;;;;9.68;85.45;95889.44;29395;260;63009;-57
2023/04/24 00:23:41;;;;;;;0.50;0.50;;;;;;;9.77;85.53;95897.59;29395;231;63005;-58
2023/04/24 00:24:12;;;;;;;0.50;0.50;;;;;;;9.82;84.96;95897.47;29395;211;63009;-57
2023/04/24 00:24:43;;;;;;;0.50;0.50;;;;;;;9.82;84.50;95899.38;29394;265;64009;-57
2023/04/24 00:25:18;;;;;;;0.50;0.50;;;;;;;9.80;84.32;95896.97;29395;223;63009;-56
2023/04/24 00:25:49;;;;;;;0.50;0.50;;;;;;;9.78;84.30;95892.97;29395;207;63004;-58
2023/04/24 00:26:21;;;;;;;0.50;0.50;;;;;;;9.81;84.42;95898.56;29395;203;63016;-58
2023/04/24 00:26:53;;;;;;;0.50;0.50;;;;;;;9.83;84.24;95901.78;29395;225;63004;-59
2023/04/24 00:27:24;;;;;;;0.50;0.50;;;;;;;9.81;84.24;95904.00;29395;214;63008;-57
2023/04/24 00:27:55;;;;;;;0.50;0.50;;;;;;;9.79;84.41;95906.22;29395;231;63004;-56
2023/04/24 00:28:26;;;;;;;0.50;0.50;;;;;;;9.77;84.46;95904.94;29395;231;63009;-57
2023/04/24 00:28:57;;;;;;;0.50;0.50;;;;;;;9.75;84.40;95905.22;29395;214;63005;-57
2023/04/24 00:29:29;;;;;;;0.50;0.50;;;;;;;9.79;84.05;95900.78;29394;204;64014;-57
2023/04/24 00:30:00;;;;;;;0.50;0.50;;;;;;;9.80;84.02;95902.41;29395;223;63005;-57
2023/04/24 00:30:31;;;;;;;0.50;0.50;;;;;;;9.79;83.85;95905.41;29395;222;63027;-56
2023/04/24 00:31:03;;;;;;;0.50;0.50;;;;;;;9.77;84.79;95908.44;29395;216;63005;-57
2023/04/24 00:31:34;;;;;;;0.50;0.50;;;;;;;9.75;84.37;95905.22;29395;253;63009;-56
2023/04/24 00:32:05;;;;;;;0.60;0.60;;;;;;;9.73;84.68;95910.16;29395;197;63005;-57
2023/04/24 00:32:37;;;;;;;0.50;0.50;;;;;;;9.75;84.49;95905.22;29395;202;63009;-57
2023/04/24 00:33:10;;;;;;;0.50;0.50;;;;;;;9.78;84.58;95907.31;29395;247;63004;-57
2023/04/24 00:33:41;;;;;;;0.50;0.50;;;;;;;9.83;84.37;95903.69;29395;222;63019;-57
2023/04/24 00:34:14;;;;;;;0.50;0.50;;;;;;;9.98;82.78;95909.50;29395;199;63004;-57
2023/04/24 00:34:45;;;;;;;0.50;0.50;;;;;;;9.99;82.61;95900.25;29394;202;64013;-58
2023/04/24 00:35:16;;;;;;;0.50;0.50;;;;;;;9.94;82.59;95903.09;29395;235;63004;-56
2023/04/24 00:35:48;;;;;;;0.50;0.50;;;;;;;9.94;82.84;95907.72;29395;265;63009;-57
2023/04/24 00:36:20;;;;;;;0.50;0.50;;;;;;;9.92;83.00;95905.34;29395;221;63005;-60
2023/04/24 00:36:52;;;;;;;0.50;0.50;;;;;;;9.94;82.67;95903.09;29395;207;63017;-59
2023/04/24 00:37:23;;;;;;;0.50;0.50;;;;;;;9.92;83.06;95899.91;29395;199;63005;-58
2023/04/24 00:37:54;;;;;;;0.50;0.50;;;;;;;9.91;82.70;95902.94;29395;250;63009;-60
2023/04/24 00:38:26;;;;;;;0.50;0.50;;;;;;;9.87;83.17;95900.03;29395;238;63005;-60
2023/04/24 00:38:57;;;;;;;0.50;0.50;;;;;;;9.82;83.01;95894.75;29395;210;63005;-59
2023/04/24 00:39:29;;;;;;;0.50;0.50;;;;;;;9.81;83.75;95898.56;29394;205;64009;-57
2023/04/24 00:40:00;;;;;;;0.50;0.50;;;;;;;9.79;83.74;95895.38;29395;245;63009;-58
2023/04/24 00:40:32;;;;;;;0.50;0.50;;;;;;;9.78;84.12;95896.50;29395;226;63004;-60
2023/04/24 00:41:03;;;;;;;0.50;0.50;;;;;;;9.80;83.67;95896.97;29395;221;63009;-59
2023/04/24 00:41:35;;;;;;;0.50;0.50;;;;;;;9.81;83.42;95893.16;29395;262;63004;-58
2023/04/24 00:42:06;;;;;;;0.50;0.50;;;;;;;9.79;83.18;95892.66;29395;248;63009;-57
2023/04/24 00:42:38;;;;;;;0.50;0.50;;;;;;;9.79;83.56;95889.16;29395;209;63007;-60
2023/04/24 00:43:10;;;;;;;0.50;0.50;;;;;;;9.79;83.43;95884.53;29395;223;63008;-57
2023/04/24 00:43:41;;;;;;;0.50;0.50;;;;;;;9.79;83.57;95889.97;29395;238;63005;-57
2023/04/24 00:44:12;;;;;;;0.50;0.50;;;;;;;9.79;82.80;95889.97;29395;199;63009;-56
2023/04/24 00:44:44;;;;;;;0.50;0.50;;;;;;;9.80;83.56;95888.84;29394;259;64009;-57
2023/04/24 00:45:16;;;;;;;0.50;0.50;;;;;;;9.85;83.14;95887.91;29395;246;63009;-56
2023/04/24 00:45:47;;;;;;;0.50;0.50;;;;;;;9.87;83.18;95891.91;29395;216;63005;-56
2023/04/24 00:46:19;;;;;;;0.50;0.50;;;;;;;9.88;82.62;95888.09;29395;219;63009;-58
2023/04/24 00:46:54;;;;;;;0.50;0.50;;;;;;;9.87;82.99;95891.91;29395;208;63005;-59
2023/04/24 00:47:26;;;;;;;0.50;0.50;;;;;;;9.84;82.50;95892.53;29395;200;63009;-57
2023/04/24 00:48:00;;;;;;;0.50;0.50;;;;;;;9.84;82.91;95887.13;29395;266;63004;-57
2023/04/24 00:48:31;;;;;;;0.50;0.50;;;;;;;9.84;82.46;95894.44;29395;270;63009;-57
2023/04/24 00:49:04;;;;;;;0.50;0.50;;;;;;;9.83;83.25;95890.13;29395;207;63004;-56
2023/04/24 00:49:36;;;;;;;0.50;0.50;;;;;;;9.79;83.24;95889.97;29395;208;63009;-57
2023/04/24 00:50:08;;;;;;;0.47;0.47;;;;;;;9.81;83.49;95887.75;29394;216;64008;-57
2023/04/24 00:50:40;;;;;;;0.50;0.50;;;;;;;9.79;83.57;95889.97;29395;196;63008;-56
2023/04/24 00:51:12;;;;;;;0.50;0.50;;;;;;;9.83;84.21;95885.53;29395;208;63020;-57
2023/04/24 00:51:45;;;;;;;0.50;0.50;;;;;;;9.86;83.57;95884.91;29395;222;63009;-56
2023/04/24 00:52:17;;;;;;;0.50;0.50;;;;;;;9.91;83.03;95887.47;29395;212;63011;-58
2023/04/24 00:52:49;;;;;;;0.50;0.50;;;;;;;9.97;82.15;95888.94;29395;223;63009;-57
2023/04/24 00:53:21;;;;;;;0.50;0.50;;;;;;;9.97;81.98;95891.66;29395;243;63008;-58
2023/04/24 00:53:52;;;;;;;0.43;0.43;;;;;;;9.95;82.36;95888.44;29395;277;63009;-60
2023/04/24 00:54:24;;;;;;;0.50;0.50;;;;;;;9.93;82.49;95882.53;29396;212;63005;-59
2023/04/24 00:54:55;;;;;;;0.50;0.50;;;;;;;9.95;81.75;95885.75;29395;302;63009;-58
2023/04/24 00:55:26;;;;;;;0.50;0.50;;;;;;;9.95;82.04;95888.44;29394;277;64009;-57
2023/04/24 00:55:59;;;;;;;0.50;0.50;;;;;;;9.92;82.34;95889.06;29395;198;63009;-58
2023/04/24 00:56:31;;;;;;;0.40;0.40;;;;;;;9.88;83.26;95885.37;29395;208;63004;-58
2023/04/24 00:57:06;;;;;;;0.50;0.50;;;;;;;9.84;83.60;95881.69;29394;211;64013;-58
2023/04/24 00:57:38;;;;;;;0.50;0.50;;;;;;;9.85;83.17;95886.00;29395;239;63004;-58
2023/04/24 00:58:09;;;;;;;0.50;0.50;;;;;;;9.83;82.35;95874.69;29395;206;63008;-58
2023/04/24 00:58:42;;;;;;;0.50;0.50;;;;;;;9.83;82.17;95884.72;29395;206;63005;-58
2023/04/24 00:59:16;;;;;;;0.50;0.50;;;;;;;9.80;82.02;95878.00;29395;248;63028;-58
2023/04/24 00:59:47;;;;;;;0.50;0.50;;;;;;;9.85;82.23;95877.09;29395;197;63005;-57
2023/04/24 01:00:19;;;;;;;0.50;0.50;;;;;;;9.85;82.32;95877.09;29395;315;63009;-60
2023/04/24 01:00:52;;;;;;;0.50;0.50;;;;;;;9.84;82.78;95879.00;29395;222;63005;-58
2023/04/24 01:01:24;;;;;;;0.50;0.50;;;;;;;9.84;82.53;95875.47;29395;204;63020;-58
2023/04/24 01:01:57;;;;;;;0.50;0.50;;;;;;;9.83;82.83;95880.09;29395;197;63005;-59
2023/04/24 01:02:29;;;;;;;0.50;0.50;;;;;;;9.82;82.65;95875.78;29394;196;64013;-59
2023/04/24 01:03:04;;;;;;;0.50;0.50;;;;;;;9.82;82.67;95878.50;29395;213;63004;-58
2023/04/24 01:03:38;;;;;;;0.45;0.45;;;;;;;9.83;82.64;95880.09;29395;212;63027;-58
2023/04/24 01:04:12;;;;;;;0.50;0.50;;;;;;;9.86;82.68;95879.47;29395;285;63016;-58
2023/04/24 01:04:43;;;;;;;0.50;0.50;;;;;;;9.87;82.22;95880.28;29395;231;63009;-56
2023/04/24 01:05:17;;;;;;;0.50;0.50;;;;;;;9.87;82.75;95878.37;29395;207;63004;-59
2023/04/24 01:05:49;;;;;;;0.50;0.50;;;;;;;9.86;82.64;95879.47;29395;216;63008;-59
2023/04/24 01:06:21;;;;;;;0.50;0.50;;;;;;;9.83;83.59;95874.69;29395;215;63005;-58
2023/04/24 01:06:54;;;;;;;0.50;0.50;;;;;;;9.81;83.33;95876.09;29395;209;63009;-58
2023/04/24 01:07:26;;;;;;;0.50;0.50;;;;;;;9.79;84.17;95876.41;29395;197;63016;-58
2023/04/24 01:07:58;;;;;;;0.50;0.50;;;;;;;9.78;84.22;95874.81;29394;217;64013;-58
2023/04/24 01:08:30;;;;;;;0.50;0.50;;;;;;;9.76;84.94;95874.31;29395;220;63005;-58
2023/04/24 01:09:02;;;;;;;0.50;0.50;;;;;;;9.74;84.79;95871.13;29395;198;63009;-58
2023/04/24 01:09:35;;;;;;;0.50;0.50;;;;;;;9.72;84.95;95873.34;29395;202;63011;-58
2023/04/24 01:10:08;;;;;;;0.50;0.50;;;;;;;9.73;84.25;95874.94;29395;214;63009;-60
2023/04/24 01:10:41;;;;;;;0.50;0.50;;;;;;;9.78;84.30;95866.69;29395;250;63004;-59
2023/04/24 01:11:12;;;;;;;0.50;0.50;;;;;;;9.79;83.65;95862.87;29395;213;63009;-57
2023/04/24 01:11:44;;;;;;;0.43;0.43;;;;;;;9.81;83.78;95871.47;29395;243;63004;-58
2023/04/24 01:12:15;;;;;;;0.50;0.50;;;;;;;9.82;83.47;95873.09;29395;223;63009;-58
2023/04/24 01:12:47;;;;;;;0.43;0.43;;;;;;;9.81;83.92;95870.69;29395;218;63004;-57
2023/04/24 01:13:21;;;;;;;0.50;0.50;;;;;;;9.80;84.29;95869.87;29394;209;64013;-56
2023/04/24 01:13:52;;;;;;;0.50;0.50;;;;;;;9.79;84.09;95868.28;29395;221;63005;-60
2023/04/24 01:14:24;;;;;;;0.50;0.50;;;;;;;9.80;83.93;95867.19;29395;205;63009;-57
2023/04/24 01:14:56;;;;;;;0.50;0.50;;;;;;;9.84;83.47;95876.28;29394;222;64009;-58
2023/04/24 01:15:27;;;;;;;0.50;0.50;;;;;;;9.84;83.34;95870.87;29395;237;63009;-58
2023/04/24 01:16:00;;;;;;;0.50;0.50;;;;;;;9.85;83.65;95866.25;29395;204;63000;-59
2023/04/24 01:16:31;;;;;;;0.50;0.50;;;;;;;9.85;83.46;95871.66;29395;205;63009;-58
2023/04/24 01:17:03;;;;;;;0.50;0.50;;;;;;;9.83;83.64;95869.25;29395;251;63005;-58
2023/04/24 01:17:34;;;;;;;0.45;0.45;;;;;;;9.84;83.97;95870.87;29395;236;63009;-58
2023/04/24 01:18:05;;;;;;;0.50;0.50;;;;;;;9.86;83.85;95873.25;29395;221;63004;-58
2023/04/24 01:18:38;;;;;;;0.50;0.50;;;;;;;9.86;83.10;95874.06;29395;202;63009;-58
2023/04/24 01:19:11;;;;;;;0.50;0.50;;;;;;;9.91;82.89;95876.63;29395;197;63004;-58
2023/04/24 01:19:44;;;;;;;0.40;0.40;;;;;;;9.90;82.58;95871.53;29395;214;63009;-59
2023/04/24 01:20:17;;;;;;;0.50;0.50;;;;;;;9.91;82.96;95876.63;29394;205;64008;-58
2023/04/24 01:20:51;;;;;;;0.50;0.50;;;;;;;9.88;83.00;95877.25;29395;198;63008;-58
2023/04/24 01:21:27;;;;;;;0.50;0.50;;;;;;;9.85;83.17;95874.38;29395;198;63005;-58
2023/04/24 01:22:01;;;;;;;0.50;0.50;;;;;;;9.85;82.86;95869.75;29395;239;63009;-58
2023/04/24 01:22:34;;;;;;;0.50;0.50;;;;;;;9.87;83.85;95877.56;29395;212;63005;-59
2023/04/24 01:23:07;;;;;;;0.50;0.50;;;;;;;9.87;83.43;95870.25;29395;204;63016;-60
2023/04/24 01:23:38;;;;;;;0.50;0.50;;;;;;;9.86;83.46;95868.63;29395;257;63005;-58
2023/04/24 01:24:09;;;;;;;0.50;0.50;;;;;;;9.85;83.33;95867.03;29395;197;63024;-58
2023/04/24 01:24:42;;;;;;;0.50;0.50;;;;;;;9.86;83.33;95878.69;29395;235;63004;-60
2023/04/24 01:25:13;;;;;;;0.50;0.50;;;;;;;9.86;83.24;95867.84;29395;202;63009;-59
2023/04/24 01:25:45;;;;;;;0.50;0.50;;;;;;;9.89;83.51;95867.22;29394;253;64009;-59
2023/04/24 01:26:19;;;;;;;0.50;0.50;;;;;;;9.89;83.00;95868.03;29395;229;63009;-57
2023/04/24 01:26:51;;;;;;;0.50;0.50;;;;;;;9.88;83.27;95865.62;29395;196;63004;-59
2023/04/24 01:27:22;;;;;;;0.50;0.50;;;;;;;9.88;83.17;95871.03;29395;238;63008;-58
2023/04/24 01:27:53;;;;;;;0.50;0.50;;;;;;;9.87;83.82;95864.81;29395;199;63004;-58
2023/04/24 01:28:25;;;;;;;0.50;0.50;;;;;;;9.88;83.20;95861.00;29395;220;63019;-59
2023/04/24 01:28:57;;;;;;;0.43;0.43;;;;;;;9.88;83.81;95862.91;29395;207;63005;-58
2023/04/24 01:29:28;;;;;;;0.50;0.50;;;;;;;9.89;83.44;95862.59;29395;204;63009;-59
2023/04/24 01:30:00;;;;;;;0.50;0.50;;;;;;;9.89;83.66;95867.22;29395;216;63005;-58
2023/04/24 01:30:32;;;;;;;0.50;0.50;;;;;;;9.89;83.42;95865.31;29395;209;63009;-58
2023/04/24 01:31:04;;;;;;;0.50;0.50;;;;;;;9.90;83.44;95857.97;29394;230;64009;-58
2023/04/24 01:31:35;;;;;;;0.50;0.50;;;;;;;9.86;84.07;95855.09;29395;250;63009;-58
2023/04/24 01:32:07;;;;;;;0.50;0.50;;;;;;;9.83;84.76;95861.13;29395;196;63013;-59
2023/04/24 01:32:40;;;;;;;0.50;0.50;;;;;;;9.81;84.56;95855.22;29395;208;63009;-58
2023/04/24 01:33:11;;;;;;;0.50;0.50;;;;;;;9.83;84.44;95858.44;29395;220;63004;-59
2023/04/24 01:33:43;;;;;;;0.50;0.50;;;;;;;9.82;84.18;95864.97;29395;220;63009;-58
2023/04/24 01:34:14;;;;;;;0.50;0.50;;;;;;;9.82;83.93;95856.03;29395;214;63004;-58
2023/04/24 01:34:48;;;;;;;0.50;0.50;;;;;;;9.82;84.65;95859.53;29395;197;63008;-58
2023/04/24 01:35:20;;;;;;;0.50;0.50;;;;;;;9.81;84.88;95855.22;29395;239;63004;-57
2023/04/24 01:35:52;;;;;;;0.50;0.50;;;;;;;9.79;84.73;95851.22;29395;275;63009;-59
2023/04/24 01:36:25;;;;;;;0.50;0.50;;;;;;;9.76;85.11;95858.06;29394;246;64009;-59
2023/04/24 01:36:56;;;;;;;0.50;0.50;;;;;;;9.73;85.66;95859.50;29394;258;64014;-58
2023/04/24 01:37:28;;;;;;;0.50;0.50;;;;;;;9.71;85.75;95853.59;29395;255;63005;-58
2023/04/24 01:37:59;;;;;;;0.50;0.50;;;;;;;9.71;85.66;95850.09;29395;233;63005;-58
2023/04/24 01:38:30;;;;;;;0.50;0.50;;;;;;;9.71;85.27;95850.88;29395;219;63005;-60
2023/04/24 01:39:03;;;;;;;0.50;0.50;;;;;;;9.71;84.85;95855.50;29395;295;63009;-59
2023/04/24 01:39:34;;;;;;;0.50;0.50;;;;;;;9.70;85.15;95851.22;29395;241;63004;-58
2023/04/24 01:40:07;;;;;;;0.50;0.50;;;;;;;9.69;85.46;95852.34;29395;202;63025;-57
2023/04/24 01:40:38;;;;;;;0.50;0.50;;;;;;;9.67;85.79;95849.13;29395;200;63004;-59
2023/04/24 01:41:10;;;;;;;0.50;0.50;;;;;;;9.67;85.87;95849.13;29395;204;63009;-58
2023/04/24 01:41:41;;;;;;;0.50;0.50;;;;;;;9.67;85.92;95854.56;29395;211;63004;-57
2023/04/24 01:42:13;;;;;;;0.50;0.50;;;;;;;9.66;85.79;95852.94;29394;231;64013;-58
2023/04/24 01:42:46;;;;;;;0.50;0.50;;;;;;;9.67;85.85;95859.97;29395;223;63004;-57
2023/04/24 01:43:17;;;;;;;0.50;0.50;;;;;;;9.66;85.85;95852.94;29395;247;63009;-58
2023/04/24 01:43:50;;;;;;;0.50;0.50;;;;;;;9.62;85.82;95858.19;29395;225;63001;-57
2023/04/24 01:44:21;;;;;;;0.50;0.50;;;;;;;9.62;86.33;95860.09;29395;202;63009;-58
2023/04/24 01:44:54;;;;;;;0.50;0.50;;;;;;;9.60;86.24;95856.91;29395;290;63005;-59
2023/04/24 01:45:25;;;;;;;0.50;0.50;;;;;;;9.60;86.38;95848.78;29395;221;63023;-59
2023/04/24 01:45:57;;;;;;;0.50;0.50;;;;;;;9.60;86.56;95854.19;29395;200;63005;-58
2023/04/24 01:46:28;;;;;;;0.50;0.50;;;;;;;9.64;86.47;95849.75;29395;280;63009;-58
2023/04/24 01:47:01;;;;;;;0.50;0.50;;;;;;;9.62;86.06;95846.56;29395;301;63005;-58
2023/04/24 01:47:32;;;;;;;0.50;0.50;;;;;;;9.61;86.12;95844.97;29394;249;64013;-59
2023/04/24 01:48:04;;;;;;;0.50;0.50;;;;;;;9.60;86.32;95843.34;29395;248;63004;-59
2023/04/24 01:48:36;;;;;;;0.50;0.50;;;;;;;9.57;86.05;95839.37;29395;202;63009;-59
2023/04/24 01:49:07;;;;;;;0.50;0.50;;;;;;;9.57;86.61;95843.97;29395;233;63004;-58
2023/04/24 01:49:39;;;;;;;0.50;0.50;;;;;;;9.57;86.45;95838.56;29395;237;63008;-59
2023/04/24 01:50:12;;;;;;;0.50;0.50;;;;;;;9.56;86.48;95843.19;29395;259;63004;-58
2023/04/24 01:50:43;;;;;;;0.50;0.50;;;;;;;9.56;86.34;95842.38;29395;275;63009;-59
2023/04/24 01:51:14;;;;;;;0.50;0.50;;;;;;;9.57;86.50;95838.56;29395;197;63005;-57
2023/04/24 01:51:46;;;;;;;0.50;0.50;;;;;;;9.56;86.48;95837.75;29395;261;63009;-59
2023/04/24 01:52:18;;;;;;;0.50;0.50;;;;;;;9.59;86.08;95841.75;29395;199;63005;-59
2023/04/24 01:52:49;;;;;;;0.50;0.50;;;;;;;9.60;86.55;95837.94;29394;235;64013;-58
2023/04/24 01:53:20;;;;;;;0.50;0.50;;;;;;;9.58;86.64;95840.97;29395;234;63005;-60
2023/04/24 01:53:53;;;;;;;0.50;0.50;;;;;;;9.59;86.87;95841.75;29395;278;63009;-57
2023/04/24 01:54:24;;;;;;;0.50;0.50;;;;;;;9.58;87.29;95840.16;29394;236;64009;-59
2023/04/24 01:54:55;;;;;;;0.50;0.50;;;;;;;9.59;86.76;95841.75;29395;223;63009;-59
2023/04/24 01:55:27;;;;;;;0.50;0.50;;;;;;;9.63;86.59;95840.03;29395;262;63004;-59
2023/04/24 01:55:58;;;;;;;0.50;0.50;;;;;;;9.64;86.36;95844.34;29395;202;63009;-59
2023/04/24 01:56:30;;;;;;;0.40;0.40;;;;;;;9.63;86.18;95845.44;29395;251;63004;-58
2023/04/24 01:57:02;;;;;;;0.50;0.50;;;;;;;9.62;86.30;95841.94;29395;278;63009;-58
2023/04/24 01:57:34;;;;;;;0.50;0.50;;;;;;;9.60;86.33;95838.75;29395;202;63004;-58
2023/04/24 01:58:06;;;;;;;0.50;0.50;;;;;;;9.59;86.41;95847.97;29394;198;64014;-58
2023/04/24 01:58:37;;;;;;;0.50;0.50;;;;;;;9.57;86.88;95846.69;29395;243;63005;-59
2023/04/24 01:59:11;;;;;;;0.50;0.50;;;;;;;9.57;86.50;95843.97;29395;265;63009;-58
2023/04/24 01:59:43;;;;;;;0.50;0.50;;;;;;;9.56;86.85;95850.50;29395;203;63005;-58
2023/04/24 02:00:15;;;;;;;0.50;0.50;;;;;;;9.56;86.99;95842.38;29395;212;63009;-58
2023/04/24 02:00:46;;;;;;;0.50;0.50;;;;;;;9.55;86.73;95840.78;29395;196;63005;-58
2023/04/24 02:01:21;;;;;;;0.50;0.50;;;;;;;9.54;86.74;95850.81;29395;217;63009;-58
2023/04/24 02:01:52;;;;;;;0.50;0.50;;;;;;;9.52;87.25;95846.81;29395;222;63005;-58
2023/04/24 02:02:27;;;;;;;0.50;0.50;;;;;;;9.50;87.08;95846.34;29395;202;63009;-59
2023/04/24 02:03:01;;;;;;;0.50;0.50;;;;;;;9.47;87.34;95850.47;29394;198;64009;-59
2023/04/24 02:03:34;;;;;;;0.45;0.45;;;;;;;9.48;87.34;95851.25;29395;198;63027;-59
2023/04/24 02:04:07;;;;;;;0.50;0.50;;;;;;;9.48;87.59;95851.25;29395;281;63010;-59
2023/04/24 02:04:39;;;;;;;0.50;0.50;;;;;;;9.48;87.71;95852.06;29394;196;64013;-59
2023/04/24 02:05:10;;;;;;;0.50;0.50;;;;;;;9.50;87.36;95849.84;29395;197;63004;-58
2023/04/24 02:05:45;;;;;;;0.50;0.50;;;;;;;9.54;86.98;95850.00;29395;198;63009;-59
2023/04/24 02:06:16;;;;;;;0.50;0.50;;;;;;;9.55;87.11;95851.62;29395;215;63005;-57
2023/04/24 02:06:47;;;;;;;0.50;0.50;;;;;;;9.55;86.53;95848.91;29395;247;63009;-58
2023/04/24 02:07:19;;;;;;;0.50;0.50;;;;;;;9.55;87.18;95848.91;29395;221;63005;-58
2023/04/24 02:07:50;;;;;;;0.50;0.50;;;;;;;9.56;87.19;95853.22;29394;393;64013;-58
2023/04/24 02:08:21;;;;;;;0.50;0.50;;;;;;;9.59;86.66;95852.59;29395;216;63005;-58
2023/04/24 02:08:53;;;;;;;0.50;0.50;;;;;;;9.60;85.92;95848.78;29395;227;63005;-59
2023/04/24 02:09:24;;;;;;;0.50;0.50;;;;;;;9.62;85.95;95846.56;29395;206;63005;-59
2023/04/24 02:09:56;;;;;;;0.50;0.50;;;;;;;9.65;85.46;95849.44;29395;256;63009;-58
2023/04/24 02:10:27;;;;;;;0.50;0.50;;;;;;;9.68;85.60;95850.72;29395;197;63004;-58
2023/04/24 02:10:58;;;;;;;0.50;0.50;;;;;;;9.67;85.42;95854.56;29395;197;63009;-57
2023/04/24 02:11:30;;;;;;;0.50;0.50;;;;;;;9.65;85.42;95845.94;29395;255;63008;-60
2023/04/24 02:12:01;;;;;;;0.50;0.50;;;;;;;9.62;85.74;95849.25;29395;212;63009;-58
2023/04/24 02:12:33;;;;;;;0.50;0.50;;;;;;;9.58;86.39;95853.69;29395;211;63004;-58
2023/04/24 02:13:04;;;;;;;0.50;0.50;;;;;;;9.56;86.81;95847.78;29394;221;64013;-59
2023/04/24 02:13:38;;;;;;;0.50;0.50;;;;;;;9.61;86.11;95850.38;29395;259;63005;-59
2023/04/24 02:14:10;;;;;;;0.50;0.50;;;;;;;9.59;85.89;95852.59;29395;216;63009;-58
2023/04/24 02:14:42;;;;;;;0.50;0.50;;;;;;;9.58;87.22;95856.41;29395;205;63005;-60
2023/04/24 02:15:13;;;;;;;0.50;0.50;;;;;;;9.55;86.77;95857.03;29395;214;63019;-58
2023/04/24 02:15:44;;;;;;;0.50;0.50;;;;;;;9.53;86.99;95846.50;29395;206;63005;-60
2023/04/24 02:16:16;;;;;;;0.50;0.50;;;;;;;9.52;86.98;95853.03;29395;230;63015;-60
2023/04/24 02:16:47;;;;;;;0.50;0.50;;;;;;;9.51;86.89;95851.44;29395;253;63005;-59
2023/04/24 02:17:19;;;;;;;0.50;0.50;;;;;;;9.52;87.24;95846.81;29394;238;64013;-58
2023/04/24 02:17:50;;;;;;;0.50;0.50;;;;;;;9.51;87.06;95858.75;29394;250;64004;-58
2023/04/24 02:18:22;;;;;;;0.50;0.50;;;;;;;9.46;88.13;95848.06;29395;212;63026;-59
2023/04/24 02:18:53;;;;;;;0.50;0.50;;;;;;;9.45;88.63;95849.97;29395;257;63004;-59
2023/04/24 02:19:25;;;;;;;0.50;0.50;;;;;;;9.41;88.30;95841.66;29394;198;64009;-58
2023/04/24 02:19:56;;;;;;;0.50;0.50;;;;;;;9.41;88.39;95847.06;29395;196;63004;-58
2023/04/24 02:20:27;;;;;;;0.50;0.50;;;;;;;9.44;88.19;95839.44;29394;278;64013;-58
2023/04/24 02:20:58;;;;;;;0.50;0.50;;;;;;;9.45;88.08;95838.34;29395;252;63005;-58
2023/04/24 02:21:30;;;;;;;0.50;0.50;;;;;;;9.44;87.76;95834.81;29395;252;63009;-59
2023/04/24 02:22:02;;;;;;;0.50;0.50;;;;;;;9.45;87.68;95841.03;29395;203;63005;-58
2023/04/24 02:22:33;;;;;;;0.50;0.50;;;;;;;9.44;87.77;95842.16;29395;216;63009;-58
2023/04/24 02:23:04;;;;;;;0.50;0.50;;;;;;;9.39;88.58;95838.47;29395;227;63005;-58
2023/04/24 02:23:36;;;;;;;0.50;0.50;;;;;;;9.36;88.39;95841.78;29395;209;63009;-58
2023/04/24 02:24:07;;;;;;;0.50;0.50;;;;;;;9.32;89.21;95840.84;29395;273;63015;-58
2023/04/24 02:24:39;;;;;;;0.50;0.50;;;;;;;9.32;88.58;95837.34;29395;240;63009;-57
2023/04/24 02:25:11;;;;;;;0.50;0.50;;;;;;;9.30;88.77;95851.19;29395;262;63004;-58
2023/04/24 02:25:43;;;;;;;0.50;0.50;;;;;;;9.30;88.37;95839.56;29394;227;64013;-59
2023/04/24 02:26:15;;;;;;;0.50;0.50;;;;;;;9.29;88.86;95838.75;29394;278;64009;-59
2023/04/24 02:26:46;;;;;;;0.50;0.50;;;;;;;9.29;88.68;95849.56;29395;205;63009;-57
2023/04/24 02:27:17;;;;;;;0.50;0.50;;;;;;;9.29;88.54;95846.87;29394;261;64009;-59
2023/04/24 02:27:49;;;;;;;0.50;0.50;;;;;;;9.27;88.56;95843.66;29395;222;63008;-56
2023/04/24 02:28:20;;;;;;;0.50;0.50;;;;;;;9.30;88.63;95834.13;29395;208;63005;-58
2023/04/24 02:28:52;;;;;;;0.50;0.50;;;;;;;9.30;88.41;95845.75;29395;202;63009;-58
2023/04/24 02:29:23;;;;;;;0.50;0.50;;;;;;;9.30;88.49;95840.34;29395;219;63005;-57
2023/04/24 02:29:55;;;;;;;0.50;0.50;;;;;;;9.31;88.17;95838.44;29395;209;63009;-58
2023/04/24 02:30:26;;;;;;;0.50;0.50;;;;;;;9.30;88.66;95826.81;29395;276;63005;-58
2023/04/24 02:30:58;;;;;;;0.50;0.50;;;;;;;9.29;88.47;95835.25;29395;197;63009;-58
2023/04/24 02:31:30;;;;;;;0.50;0.50;;;;;;;9.27;88.52;95838.25;29395;251;63005;-58
2023/04/24 02:32:01;;;;;;;0.50;0.50;;;;;;;9.27;88.72;95835.56;29395;231;63009;-58
2023/04/24 02:32:33;;;;;;;0.50;0.50;;;;;;;9.27;88.85;95835.56;29394;240;64009;-57
2023/04/24 02:33:05;;;;;;;0.50;0.50;;;;;;;9.26;88.74;95839.37;29395;198;63009;-57
2023/04/24 02:33:36;;;;;;;0.50;0.50;;;;;;;9.24;88.75;95838.87;29395;196;63004;-58
2023/04/24 02:34:07;;;;;;;0.40;0.40;;;;;;;9.24;88.66;95847.00;29395;211;63008;-58